createdAt,value
2023-03-04T00:01:43.266Z,2.75
2023-03-04T00:06:50.381Z,2.75
2023-03-04T00:11:57.568Z,2.75
2023-03-04T00:17:04.766Z,2.75
2023-03-04T00:22:11.936Z,2.75
2023-03-04T00:27:19.137Z,2.75
2023-03-04T00:32:26.426Z,2.75
2023-03-04T00:37:33.484Z,3.30
2023-03-04T00:42:40.664Z,2.75
2023-03-04T00:47:47.873Z,2.75
2023-03-04T00:52:55.056Z,2.75
2023-03-04T00:58:02.440Z,2.75
2023-03-04T01:03:09.861Z,2.75
2023-03-04T01:08:17.232Z,2.75
2023-03-04T01:13:24.646Z,2.75
2023-03-04T01:18:32.160Z,2.75
2023-03-04T01:23:39.602Z,2.75
2023-03-04T01:28:50.359Z,2.75
2023-03-04T01:33:58.068Z,2.75
2023-03-04T01:39:10.232Z,1.90
2023-03-04T01:44:17.695Z,1.90
2023-03-04T01:49:25.444Z,1.90
2023-03-04T01:54:33.104Z,1.90
2023-03-04T01:59:40.559Z,1.90
2023-03-04T02:04:48.093Z,1.90
2023-03-04T02:09:57.065Z,1.90
2023-03-04T02:15:05.351Z,1.90
2023-03-04T02:20:12.685Z,1.90
2023-03-04T02:25:19.921Z,1.90
2023-03-04T02:30:27.135Z,1.05
2023-03-04T02:35:34.493Z,1.05
2023-03-04T02:40:41.588Z,1.05
2023-03-04T02:45:48.767Z,1.05
2023-03-04T02:50:55.954Z,1.05
2023-03-04T02:56:03.151Z,1.05
2023-03-04T03:01:10.381Z,1.60
2023-03-04T03:06:17.630Z,0.75
2023-03-04T03:11:26.605Z,0.75
2023-03-04T03:16:32.018Z,0.75
2023-03-04T03:21:39.200Z,1.27
2023-03-04T03:26:46.510Z,0.41
2023-03-04T03:31:53.970Z,0.41
2023-03-04T03:37:01.315Z,0.41
2023-03-04T03:42:08.708Z,0.41
2023-03-04T03:47:25.264Z,0.41
2023-03-04T03:52:28.047Z,0.92
2023-03-04T03:57:35.412Z,0.92
2023-03-04T04:02:42.983Z,0.06
2023-03-04T04:07:50.643Z,0.06
2023-03-04T04:12:57.622Z,0.06
2023-03-04T04:18:04.987Z,0.06
2023-03-04T04:23:12.265Z,0.06
2023-03-04T04:28:19.619Z,0.06
2023-03-04T04:33:26.873Z,0.06
2023-03-04T04:38:37.929Z,0.06
2023-03-04T04:43:45.251Z,0.06
2023-03-04T04:48:52.601Z,0.06
2023-03-04T04:54:00.035Z,0.06
2023-03-04T04:59:07.353Z,0.06
2023-03-04T05:04:14.780Z,0.06
2023-03-04T05:09:24.102Z,0.06
2023-03-04T05:14:31.437Z,-0.80
2023-03-04T05:19:38.723Z,-0.80
2023-03-04T05:24:46.157Z,-0.80
2023-03-04T05:29:53.470Z,-0.80
2023-03-04T05:35:00.783Z,-0.80
2023-03-04T05:40:08.350Z,-0.80
2023-03-04T05:45:15.695Z,-0.80
2023-03-04T05:50:23.068Z,-0.80
2023-03-04T05:55:30.394Z,0.06
2023-03-04T06:00:37.752Z,0.06
2023-03-04T06:05:45.129Z,0.06
2023-03-04T06:10:52.538Z,-0.44
2023-03-04T06:15:59.763Z,-0.44
2023-03-04T06:21:07.013Z,-0.44
2023-03-04T06:26:14.376Z,-0.44
2023-03-04T06:31:21.591Z,-0.44
2023-03-04T06:36:28.857Z,-0.44
2023-03-04T06:41:36.192Z,-0.80
2023-03-04T06:46:43.623Z,-0.80
2023-03-04T06:51:50.830Z,-0.80
2023-03-04T06:56:58.247Z,-0.80
2023-03-04T07:02:05.504Z,-0.32
2023-03-04T07:07:12.782Z,-0.32
2023-03-04T07:12:20.072Z,-0.32
2023-03-04T07:17:27.386Z,-0.32
2023-03-04T07:22:34.731Z,-0.32
2023-03-04T07:27:42.098Z,-0.32
2023-03-04T07:32:49.641Z,-0.32
2023-03-04T07:37:56.851Z,-0.32
2023-03-04T07:43:04.245Z,-0.32
2023-03-04T07:48:11.462Z,-0.80
2023-03-04T07:53:18.802Z,-0.80
2023-03-04T07:58:26.261Z,-0.80
2023-03-04T08:03:33.605Z,0.06
2023-03-04T08:08:40.947Z,0.06
2023-03-04T08:13:48.348Z,0.06
2023-03-04T08:18:55.727Z,0.06
2023-03-04T08:24:03.058Z,0.06
2023-03-04T08:29:10.563Z,-0.80
2023-03-04T08:34:17.823Z,-0.32
2023-03-04T08:39:25.135Z,-0.32
2023-03-04T08:44:32.434Z,-0.32
2023-03-04T08:49:39.708Z,-1.19
2023-03-04T08:54:46.992Z,-0.72
2023-03-04T08:59:54.478Z,-0.72
2023-03-04T09:05:01.733Z,-0.72
2023-03-04T09:10:09.047Z,-1.19
2023-03-04T09:15:16.332Z,-0.32
2023-03-04T09:20:23.725Z,-0.80
2023-03-04T09:25:31.050Z,-0.80
2023-03-04T09:30:38.324Z,-0.80
2023-03-04T09:35:45.679Z,-0.80
2023-03-04T09:40:53.007Z,-0.80
2023-03-04T09:46:00.331Z,-0.80
2023-03-04T09:51:07.639Z,-0.80
2023-03-04T09:56:14.903Z,-0.80
2023-03-04T10:01:22.324Z,-0.80
2023-03-04T10:06:29.683Z,-0.80
2023-03-04T10:11:37.017Z,-0.80
2023-03-04T10:16:44.356Z,-0.80
2023-03-04T10:21:51.871Z,-0.80
2023-03-04T10:26:59.256Z,-0.80
2023-03-04T10:32:06.762Z,-0.80
2023-03-04T10:37:14.277Z,-0.32
2023-03-04T10:42:21.808Z,-0.32
2023-03-04T10:47:29.006Z,-0.32
2023-03-04T10:52:36.282Z,0.15
2023-03-04T10:57:43.813Z,0.15
2023-03-04T11:02:51.253Z,-0.27
2023-03-04T11:07:58.680Z,-0.27
2023-03-04T11:13:05.997Z,-0.27
2023-03-04T11:18:13.391Z,0.15
2023-03-04T11:23:20.652Z,0.15
2023-03-04T11:28:27.977Z,-0.32
2023-03-04T11:33:35.391Z,-0.32
2023-03-04T11:38:42.687Z,0.54
2023-03-04T11:43:49.938Z,0.06
2023-03-04T11:48:57.397Z,0.06
2023-03-04T11:54:04.861Z,0.06
2023-03-04T11:59:12.585Z,-0.44
2023-03-04T12:04:20.087Z,0.41
2023-03-04T12:09:27.396Z,0.41
2023-03-04T12:14:35.452Z,0.41
2023-03-04T12:19:42.940Z,0.41
2023-03-04T12:24:50.219Z,-0.11
2023-03-04T12:29:57.395Z,-0.11
2023-03-04T12:35:04.586Z,-0.11
2023-03-04T12:40:11.753Z,0.75
2023-03-04T12:45:18.929Z,0.75
2023-03-04T12:50:26.106Z,0.75
2023-03-04T12:55:33.273Z,0.75
2023-03-04T13:00:40.486Z,0.75
2023-03-04T13:05:47.708Z,1.27
2023-03-04T13:10:54.850Z,1.27
2023-03-04T13:16:02.070Z,1.27
2023-03-04T13:21:09.259Z,2.13
2023-03-04T13:26:16.417Z,1.60
2023-03-04T13:31:23.701Z,1.60
2023-03-04T13:36:30.808Z,1.60
2023-03-04T13:41:37.986Z,2.13
2023-03-04T13:46:45.201Z,2.13
2023-03-04T13:51:52.535Z,2.13
2023-03-04T13:56:59.841Z,1.60
2023-03-04T14:02:07.161Z,1.60
2023-03-04T14:07:14.578Z,2.45
2023-03-04T14:12:21.858Z,2.45
2023-03-04T14:17:29.190Z,2.45
2023-03-04T14:22:36.397Z,2.45
2023-03-04T14:27:43.627Z,2.45
2023-03-04T14:32:50.840Z,2.45
2023-03-04T14:37:58.057Z,1.90
2023-03-04T14:43:05.237Z,1.90
2023-03-04T14:48:12.641Z,1.90
2023-03-04T14:53:20.292Z,1.90
2023-03-04T14:58:27.885Z,1.90
2023-03-04T15:03:35.266Z,2.75
2023-03-04T15:08:42.742Z,2.75
2023-03-04T15:13:50.006Z,2.75
2023-03-04T15:18:57.237Z,2.17
2023-03-04T15:24:04.513Z,2.17
2023-03-04T15:29:12.021Z,2.17
2023-03-04T15:34:19.369Z,2.17
2023-03-04T15:39:26.545Z,2.17
2023-03-04T15:44:33.778Z,2.17
2023-03-04T15:49:41.031Z,2.17
2023-03-04T15:54:48.332Z,2.17
2023-03-04T15:59:55.868Z,2.17
2023-03-04T16:05:03.313Z,2.17
2023-03-04T16:10:10.805Z,2.17
2023-03-04T16:15:18.393Z,2.17
2023-03-04T16:20:26.028Z,2.17
2023-03-04T16:25:33.448Z,2.17
2023-03-04T16:30:40.657Z,2.17
2023-03-04T16:35:48.159Z,2.17
2023-03-04T16:40:55.346Z,2.17
2023-03-04T16:46:02.725Z,2.17
2023-03-04T16:51:09.868Z,2.17
2023-03-04T16:56:17.184Z,2.17
2023-03-04T17:01:24.425Z,2.17
2023-03-04T17:06:31.873Z,2.17
2023-03-04T17:11:39.312Z,2.17
2023-03-04T17:16:46.798Z,2.17
2023-03-04T17:21:54.415Z,3.01
2023-03-04T17:27:02.150Z,2.17
2023-03-04T17:32:09.712Z,2.75
2023-03-04T17:37:17.014Z,2.17
2023-03-04T17:42:24.600Z,2.17
2023-03-04T17:47:32.916Z,3.01
2023-03-04T17:52:39.651Z,3.01
2023-03-04T17:57:47.135Z,3.01
2023-03-04T18:02:54.824Z,3.01
2023-03-04T18:08:02.437Z,3.01
2023-03-04T18:13:10.196Z,3.01
2023-03-04T18:18:17.762Z,3.01
2023-03-04T18:23:26.606Z,3.01
2023-03-04T18:28:34.248Z,3.01
2023-03-04T18:33:41.840Z,3.01
2023-03-04T18:38:49.461Z,3.01
2023-03-04T18:43:58.133Z,3.01
2023-03-04T18:49:05.817Z,3.01
2023-03-04T18:54:13.542Z,3.01
2023-03-04T18:59:21.268Z,2.75
2023-03-04T19:04:28.853Z,2.75
2023-03-04T19:09:36.491Z,2.75
2023-03-04T19:14:44.109Z,2.17
2023-03-04T19:19:51.418Z,2.75
2023-03-04T19:24:58.909Z,2.75
2023-03-04T19:30:06.336Z,2.75
2023-03-04T19:35:13.733Z,2.75
2023-03-04T19:40:21.340Z,2.75
2023-03-04T19:45:30.030Z,2.17
2023-03-04T19:50:37.533Z,2.75
2023-03-04T19:55:45.113Z,2.17
2023-03-04T20:00:52.800Z,3.01
2023-03-04T20:06:00.644Z,3.01
2023-03-04T20:11:08.413Z,3.01
2023-03-04T20:16:16.298Z,3.01
2023-03-04T20:21:23.791Z,3.01
2023-03-04T20:26:31.421Z,3.01
2023-03-04T20:31:39.043Z,2.41
2023-03-04T20:36:46.739Z,2.41
2023-03-04T20:41:54.360Z,1.79
2023-03-04T20:47:01.989Z,3.01
2023-03-04T20:52:09.310Z,3.01
2023-03-04T20:57:16.785Z,2.17
2023-03-04T21:02:24.354Z,2.41
2023-03-04T21:07:32.693Z,1.79
2023-03-04T21:12:39.989Z,1.79
2023-03-04T21:17:47.468Z,1.79
2023-03-04T21:22:54.840Z,1.79
2023-03-04T21:28:02.373Z,1.79
2023-03-04T21:33:10.131Z,1.79
2023-03-04T21:38:18.839Z,1.79
2023-03-04T21:43:26.157Z,1.79
2023-03-04T21:48:33.592Z,1.79
2023-03-04T21:53:40.964Z,1.79
2023-03-04T21:58:48.391Z,1.14
2023-03-04T22:03:56.417Z,1.14
2023-03-04T22:09:03.500Z,1.79
2023-03-04T22:14:10.750Z,1.14
2023-03-04T22:19:18.004Z,1.79
2023-03-04T22:24:25.156Z,1.14
2023-03-04T22:29:32.361Z,1.14
2023-03-04T22:34:39.556Z,1.14
2023-03-04T22:39:46.719Z,1.14
2023-03-04T22:44:53.970Z,1.14
2023-03-04T22:50:01.233Z,1.14
2023-03-04T22:55:08.380Z,1.14
2023-03-04T23:00:15.658Z,1.14
2023-03-04T23:05:22.985Z,1.14
2023-03-04T23:10:30.151Z,1.14
2023-03-04T23:15:37.414Z,1.14
2023-03-04T23:20:44.640Z,1.14
2023-03-04T23:25:51.844Z,1.14
2023-03-04T23:30:59.224Z,1.14
2023-03-04T23:36:06.289Z,1.79
2023-03-04T23:41:13.533Z,1.14
2023-03-04T23:46:21.432Z,1.14
2023-03-04T23:51:28.634Z,1.14
2023-03-04T23:56:35.783Z,1.14
